sensor_id;sensor_type;location;lat;lon;timestamp;P1;durP1;ratioP1;P2;durP2;ratioP2
24485;SDS011;13449;49.374;8.584;2023-12-20T00:01:17;15.95;;;6.18;;
24485;SDS011;13449;49.374;8.584;2023-12-20T00:03:44;13.30;;;5.63;;
24485;SDS011;13449;49.374;8.584;2023-12-20T00:06:19;13.63;;;5.95;;
24485;SDS011;13449;49.374;8.584;2023-12-20T00:08:55;8.40;;;5.72;;
24485;SDS011;13449;49.374;8.584;2023-12-20T00:11:21;15.15;;;6.40;;
24485;SDS011;13449;49.374;8.584;2023-12-20T00:13:51;13.43;;;6.40;;
24485;SDS011;13449;49.374;8.584;2023-12-20T00:16:18;13.23;;;6.22;;
24485;SDS011;13449;49.374;8.584;2023-12-20T00:18:45;15.05;;;6.30;;
24485;SDS011;13449;49.374;8.584;2023-12-20T00:21:15;14.13;;;6.07;;
24485;SDS011;13449;49.374;8.584;2023-12-20T00:23:43;12.82;;;6.03;;
24485;SDS011;13449;49.374;8.584;2023-12-20T00:26:10;10.65;;;5.95;;
24485;SDS011;13449;49.374;8.584;2023-12-20T00:28:43;12.95;;;6.50;;
24485;SDS011;13449;49.374;8.584;2023-12-20T00:31:11;12.32;;;5.22;;
24485;SDS011;13449;49.374;8.584;2023-12-20T00:33:40;15.70;;;5.93;;
24485;SDS011;13449;49.374;8.584;2023-12-20T00:36:10;18.52;;;6.65;;
24485;SDS011;13449;49.374;8.584;2023-12-20T00:38:40;11.43;;;6.07;;
24485;SDS011;13449;49.374;8.584;2023-12-20T00:41:10;18.83;;;5.03;;
24485;SDS011;13449;49.374;8.584;2023-12-20T00:43:40;9.88;;;5.28;;
24485;SDS011;13449;49.374;8.584;2023-12-20T00:46:06;8.30;;;5.15;;
24485;SDS011;13449;49.374;8.584;2023-12-20T00:48:36;12.27;;;6.05;;
24485;SDS011;13449;49.374;8.584;2023-12-20T00:51:10;9.30;;;5.15;;
24485;SDS011;13449;49.374;8.584;2023-12-20T00:53:37;12.57;;;5.60;;
24485;SDS011;13449;49.374;8.584;2023-12-20T00:56:04;11.60;;;5.05;;
24485;SDS011;13449;49.374;8.584;2023-12-20T00:58:33;12.82;;;5.88;;
24485;SDS011;13449;49.374;8.584;2023-12-20T01:01:04;8.98;;;5.07;;
24485;SDS011;13449;49.374;8.584;2023-12-20T01:03:30;8.55;;;4.70;;
24485;SDS011;13449;49.374;8.584;2023-12-20T01:05:59;9.10;;;5.35;;
24485;SDS011;13449;49.374;8.584;2023-12-20T01:08:48;9.43;;;5.50;;
24485;SDS011;13449;49.374;8.584;2023-12-20T01:14:01;9.50;;;5.40;;
24485;SDS011;13449;49.374;8.584;2023-12-20T01:16:27;7.40;;;4.45;;
24485;SDS011;13449;49.374;8.584;2023-12-20T01:19:04;10.80;;;5.97;;
24485;SDS011;13449;49.374;8.584;2023-12-20T01:21:38;14.52;;;5.32;;
24485;SDS011;13449;49.374;8.584;2023-12-20T01:24:13;7.63;;;4.63;;
24485;SDS011;13449;49.374;8.584;2023-12-20T01:26:57;10.77;;;5.15;;
24485;SDS011;13449;49.374;8.584;2023-12-20T01:29:27;10.85;;;5.35;;
24485;SDS011;13449;49.374;8.584;2023-12-20T01:31:57;8.80;;;5.15;;
24485;SDS011;13449;49.374;8.584;2023-12-20T01:34:24;13.23;;;5.43;;
24485;SDS011;13449;49.374;8.584;2023-12-20T01:36:54;10.13;;;5.15;;
24485;SDS011;13449;49.374;8.584;2023-12-20T01:39:30;14.90;;;5.95;;
24485;SDS011;13449;49.374;8.584;2023-12-20T01:42:09;10.30;;;5.50;;
24485;SDS011;13449;49.374;8.584;2023-12-20T01:44:43;10.55;;;5.63;;
24485;SDS011;13449;49.374;8.584;2023-12-20T01:47:30;15.27;;;6.13;;
24485;SDS011;13449;49.374;8.584;2023-12-20T01:50:00;20.42;;;6.07;;
24485;SDS011;13449;49.374;8.584;2023-12-20T01:52:30;20.75;;;6.30;;
24485;SDS011;13449;49.374;8.584;2023-12-20T01:55:08;12.00;;;6.60;;
24485;SDS011;13449;49.374;8.584;2023-12-20T01:57:43;13.98;;;6.97;;
24485;SDS011;13449;49.374;8.584;2023-12-20T02:00:14;13.27;;;6.72;;
24485;SDS011;13449;49.374;8.584;2023-12-20T02:02:48;16.17;;;6.13;;
24485;SDS011;13449;49.374;8.584;2023-12-20T02:05:20;14.82;;;6.40;;
24485;SDS011;13449;49.374;8.584;2023-12-20T02:07:51;12.02;;;6.25;;
24485;SDS011;13449;49.374;8.584;2023-12-20T02:10:19;11.48;;;6.25;;
24485;SDS011;13449;49.374;8.584;2023-12-20T02:12:49;14.00;;;6.05;;
24485;SDS011;13449;49.374;8.584;2023-12-20T02:15:16;12.95;;;6.25;;
24485;SDS011;13449;49.374;8.584;2023-12-20T02:17:43;14.35;;;5.70;;
24485;SDS011;13449;49.374;8.584;2023-12-20T02:20:14;8.73;;;4.82;;
24485;SDS011;13449;49.374;8.584;2023-12-20T02:22:41;11.48;;;6.10;;
24485;SDS011;13449;49.374;8.584;2023-12-20T02:25:07;11.93;;;6.05;;
24485;SDS011;13449;49.374;8.584;2023-12-20T02:27:37;14.93;;;5.28;;
24485;SDS011;13449;49.374;8.584;2023-12-20T02:30:06;10.00;;;5.80;;
24485;SDS011;13449;49.374;8.584;2023-12-20T02:32:33;7.88;;;4.85;;
24485;SDS011;13449;49.374;8.584;2023-12-20T02:35:03;10.20;;;5.00;;
24485;SDS011;13449;49.374;8.584;2023-12-20T02:37:30;14.88;;;5.32;;
24485;SDS011;13449;49.374;8.584;2023-12-20T02:39:59;9.35;;;4.90;;
24485;SDS011;13449;49.374;8.584;2023-12-20T02:42:46;15.02;;;4.70;;
24485;SDS011;13449;49.374;8.584;2023-12-20T02:45:15;12.93;;;4.80;;
24485;SDS011;13449;49.374;8.584;2023-12-20T02:47:43;9.77;;;5.70;;
24485;SDS011;13449;49.374;8.584;2023-12-20T02:50:10;9.70;;;4.93;;
24485;SDS011;13449;49.374;8.584;2023-12-20T02:52:37;8.82;;;4.47;;
24485;SDS011;13449;49.374;8.584;2023-12-20T02:55:05;7.22;;;4.70;;
24485;SDS011;13449;49.374;8.584;2023-12-20T02:57:37;9.00;;;4.97;;
24485;SDS011;13449;49.374;8.584;2023-12-20T03:00:12;8.23;;;4.68;;
24485;SDS011;13449;49.374;8.584;2023-12-20T03:02:41;11.10;;;4.95;;
24485;SDS011;13449;49.374;8.584;2023-12-20T03:05:10;12.18;;;4.82;;
24485;SDS011;13449;49.374;8.584;2023-12-20T03:07:37;11.70;;;5.30;;
24485;SDS011;13449;49.374;8.584;2023-12-20T03:10:04;18.05;;;4.90;;
24485;SDS011;13449;49.374;8.584;2023-12-20T03:12:45;15.68;;;5.70;;
24485;SDS011;13449;49.374;8.584;2023-12-20T03:15:14;6.82;;;4.38;;
24485;SDS011;13449;49.374;8.584;2023-12-20T03:17:41;9.35;;;4.32;;
24485;SDS011;13449;49.374;8.584;2023-12-20T03:20:08;8.38;;;4.38;;
24485;SDS011;13449;49.374;8.584;2023-12-20T03:22:35;8.38;;;4.82;;
24485;SDS011;13449;49.374;8.584;2023-12-20T03:25:01;10.98;;;5.00;;
24485;SDS011;13449;49.374;8.584;2023-12-20T03:27:28;6.32;;;4.22;;
24485;SDS011;13449;49.374;8.584;2023-12-20T03:29:55;9.25;;;4.90;;
24485;SDS011;13449;49.374;8.584;2023-12-20T03:32:21;8.50;;;5.30;;
24485;SDS011;13449;49.374;8.584;2023-12-20T03:34:47;9.07;;;4.45;;
24485;SDS011;13449;49.374;8.584;2023-12-20T03:37:15;8.07;;;4.43;;
24485;SDS011;13449;49.374;8.584;2023-12-20T03:39:41;8.32;;;4.10;;
24485;SDS011;13449;49.374;8.584;2023-12-20T03:42:08;7.47;;;4.65;;
24485;SDS011;13449;49.374;8.584;2023-12-20T03:44:37;6.05;;;3.85;;
24485;SDS011;13449;49.374;8.584;2023-12-20T03:47:05;7.47;;;4.32;;
24485;SDS011;13449;49.374;8.584;2023-12-20T03:49:32;13.18;;;4.40;;
24485;SDS011;13449;49.374;8.584;2023-12-20T03:51:59;8.02;;;3.95;;
24485;SDS011;13449;49.374;8.584;2023-12-20T03:54:27;9.88;;;4.60;;
24485;SDS011;13449;49.374;8.584;2023-12-20T03:56:54;10.27;;;4.43;;
24485;SDS011;13449;49.374;8.584;2023-12-20T03:59:20;10.88;;;4.70;;
24485;SDS011;13449;49.374;8.584;2023-12-20T04:01:47;9.25;;;4.57;;
24485;SDS011;13449;49.374;8.584;2023-12-20T04:04:13;11.63;;;4.72;;
24485;SDS011;13449;49.374;8.584;2023-12-20T04:06:43;10.73;;;4.75;;
24485;SDS011;13449;49.374;8.584;2023-12-20T04:09:12;15.23;;;5.57;;
24485;SDS011;13449;49.374;8.584;2023-12-20T04:11:38;14.60;;;6.13;;
24485;SDS011;13449;49.374;8.584;2023-12-20T04:14:05;9.73;;;5.88;;
24485;SDS011;13449;49.374;8.584;2023-12-20T04:16:31;12.70;;;6.60;;
24485;SDS011;13449;49.374;8.584;2023-12-20T04:18:58;12.25;;;6.05;;
24485;SDS011;13449;49.374;8.584;2023-12-20T04:21:24;11.18;;;6.38;;
24485;SDS011;13449;49.374;8.584;2023-12-20T04:23:51;11.43;;;6.18;;
24485;SDS011;13449;49.374;8.584;2023-12-20T04:26:17;17.40;;;6.93;;
24485;SDS011;13449;49.374;8.584;2023-12-20T04:28:44;15.10;;;8.95;;
24485;SDS011;13449;49.374;8.584;2023-12-20T04:31:12;12.52;;;7.95;;
24485;SDS011;13449;49.374;8.584;2023-12-20T04:33:39;10.77;;;6.35;;
24485;SDS011;13449;49.374;8.584;2023-12-20T04:36:06;10.18;;;5.65;;
24485;SDS011;13449;49.374;8.584;2023-12-20T04:38:33;18.27;;;6.80;;
24485;SDS011;13449;49.374;8.584;2023-12-20T04:40:59;9.10;;;5.78;;
24485;SDS011;13449;49.374;8.584;2023-12-20T04:43:26;9.48;;;5.75;;
24485;SDS011;13449;49.374;8.584;2023-12-20T04:45:52;11.00;;;6.53;;
24485;SDS011;13449;49.374;8.584;2023-12-20T04:48:19;11.25;;;5.00;;
24485;SDS011;13449;49.374;8.584;2023-12-20T04:50:45;7.25;;;5.13;;
24485;SDS011;13449;49.374;8.584;2023-12-20T04:53:12;10.20;;;4.88;;
24485;SDS011;13449;49.374;8.584;2023-12-20T04:55:38;9.50;;;5.55;;
24485;SDS011;13449;49.374;8.584;2023-12-20T04:58:05;10.95;;;6.18;;
24485;SDS011;13449;49.374;8.584;2023-12-20T05:00:32;9.63;;;5.57;;
24485;SDS011;13449;49.374;8.584;2023-12-20T05:02:59;11.30;;;5.68;;
24485;SDS011;13449;49.374;8.584;2023-12-20T05:05:25;9.68;;;5.18;;
24485;SDS011;13449;49.374;8.584;2023-12-20T05:07:51;17.30;;;5.80;;
24485;SDS011;13449;49.374;8.584;2023-12-20T05:10:19;9.07;;;5.47;;
24485;SDS011;13449;49.374;8.584;2023-12-20T05:12:45;9.43;;;5.80;;
24485;SDS011;13449;49.374;8.584;2023-12-20T05:15:12;8.20;;;5.80;;
24485;SDS011;13449;49.374;8.584;2023-12-20T05:17:38;10.95;;;5.78;;
24485;SDS011;13449;49.374;8.584;2023-12-20T05:20:05;7.97;;;4.90;;
24485;SDS011;13449;49.374;8.584;2023-12-20T05:22:32;12.65;;;5.95;;
24485;SDS011;13449;49.374;8.584;2023-12-20T05:24:59;10.45;;;5.65;;
24485;SDS011;13449;49.374;8.584;2023-12-20T05:27:25;11.65;;;6.07;;
24485;SDS011;13449;49.374;8.584;2023-12-20T05:29:52;9.93;;;4.70;;
24485;SDS011;13449;49.374;8.584;2023-12-20T05:32:18;9.93;;;6.20;;
24485;SDS011;13449;49.374;8.584;2023-12-20T05:34:45;8.27;;;4.60;;
24485;SDS011;13449;49.374;8.584;2023-12-20T05:37:14;10.63;;;6.03;;
24485;SDS011;13449;49.374;8.584;2023-12-20T05:39:40;10.32;;;5.93;;
24485;SDS011;13449;49.374;8.584;2023-12-20T05:42:10;8.75;;;5.32;;
24485;SDS011;13449;49.374;8.584;2023-12-20T05:44:36;9.43;;;5.20;;
24485;SDS011;13449;49.374;8.584;2023-12-20T05:47:03;10.98;;;6.32;;
24485;SDS011;13449;49.374;8.584;2023-12-20T05:49:30;10.20;;;6.38;;
24485;SDS011;13449;49.374;8.584;2023-12-20T05:51:57;9.18;;;5.13;;
24485;SDS011;13449;49.374;8.584;2023-12-20T05:54:24;11.63;;;5.53;;
24485;SDS011;13449;49.374;8.584;2023-12-20T05:56:51;5.32;;;4.03;;
24485;SDS011;13449;49.374;8.584;2023-12-20T05:59:17;10.45;;;5.90;;
24485;SDS011;13449;49.374;8.584;2023-12-20T06:01:44;7.78;;;3.25;;
24485;SDS011;13449;49.374;8.584;2023-12-20T06:04:10;10.40;;;5.68;;
24485;SDS011;13449;49.374;8.584;2023-12-20T06:06:41;11.77;;;5.82;;
24485;SDS011;13449;49.374;8.584;2023-12-20T06:09:09;7.90;;;4.72;;
24485;SDS011;13449;49.374;8.584;2023-12-20T06:11:35;7.95;;;4.78;;
24485;SDS011;13449;49.374;8.584;2023-12-20T06:14:02;6.45;;;4.20;;
24485;SDS011;13449;49.374;8.584;2023-12-20T06:16:28;8.93;;;5.50;;
24485;SDS011;13449;49.374;8.584;2023-12-20T06:18:55;13.55;;;5.13;;
24485;SDS011;13449;49.374;8.584;2023-12-20T06:21:22;7.68;;;4.43;;
24485;SDS011;13449;49.374;8.584;2023-12-20T06:23:48;8.02;;;4.10;;
24485;SDS011;13449;49.374;8.584;2023-12-20T06:26:14;6.32;;;4.95;;
24485;SDS011;13449;49.374;8.584;2023-12-20T06:28:41;4.72;;;3.22;;
24485;SDS011;13449;49.374;8.584;2023-12-20T06:31:08;3.20;;;2.42;;
24485;SDS011;13449;49.374;8.584;2023-12-20T06:33:35;4.78;;;3.13;;
24485;SDS011;13449;49.374;8.584;2023-12-20T06:36:02;3.60;;;2.58;;
24485;SDS011;13449;49.374;8.584;2023-12-20T06:38:29;7.72;;;2.85;;
24485;SDS011;13449;49.374;8.584;2023-12-20T06:40:58;4.57;;;3.20;;
24485;SDS011;13449;49.374;8.584;2023-12-20T06:43:25;4.57;;;2.58;;
24485;SDS011;13449;49.374;8.584;2023-12-20T06:45:56;7.47;;;2.88;;
24485;SDS011;13449;49.374;8.584;2023-12-20T06:48:23;7.00;;;3.50;;
24485;SDS011;13449;49.374;8.584;2023-12-20T06:50:49;5.45;;;3.42;;
24485;SDS011;13449;49.374;8.584;2023-12-20T06:53:18;3.45;;;2.90;;
24485;SDS011;13449;49.374;8.584;2023-12-20T06:55:44;4.20;;;2.78;;
24485;SDS011;13449;49.374;8.584;2023-12-20T06:58:11;4.32;;;3.17;;
24485;SDS011;13449;49.374;8.584;2023-12-20T07:00:37;5.90;;;2.92;;
24485;SDS011;13449;49.374;8.584;2023-12-20T07:03:04;5.45;;;2.88;;
24485;SDS011;13449;49.374;8.584;2023-12-20T07:05:31;8.77;;;3.83;;
24485;SDS011;13449;49.374;8.584;2023-12-20T07:07:57;6.05;;;3.75;;
24485;SDS011;13449;49.374;8.584;2023-12-20T07:10:24;4.25;;;3.20;;
24485;SDS011;13449;49.374;8.584;2023-12-20T07:12:51;6.72;;;3.95;;
24485;SDS011;13449;49.374;8.584;2023-12-20T07:15:22;7.67;;;3.07;;
24485;SDS011;13449;49.374;8.584;2023-12-20T07:17:51;5.35;;;3.15;;
24485;SDS011;13449;49.374;8.584;2023-12-20T07:20:17;5.05;;;3.28;;
24485;SDS011;13449;49.374;8.584;2023-12-20T07:22:44;4.55;;;2.97;;
24485;SDS011;13449;49.374;8.584;2023-12-20T07:25:12;4.82;;;2.83;;
24485;SDS011;13449;49.374;8.584;2023-12-20T07:27:39;5.55;;;3.42;;
24485;SDS011;13449;49.374;8.584;2023-12-20T07:30:10;4.25;;;2.90;;
24485;SDS011;13449;49.374;8.584;2023-12-20T07:32:36;4.68;;;3.17;;
24485;SDS011;13449;49.374;8.584;2023-12-20T07:35:03;4.18;;;2.85;;
24485;SDS011;13449;49.374;8.584;2023-12-20T07:37:31;6.57;;;2.75;;
24485;SDS011;13449;49.374;8.584;2023-12-20T07:39:57;5.85;;;2.90;;
24485;SDS011;13449;49.374;8.584;2023-12-20T07:42:24;4.93;;;3.10;;
24485;SDS011;13449;49.374;8.584;2023-12-20T07:44:50;6.10;;;3.28;;
24485;SDS011;13449;49.374;8.584;2023-12-20T07:47:19;7.75;;;3.55;;
24485;SDS011;13449;49.374;8.584;2023-12-20T07:49:51;5.78;;;3.88;;
24485;SDS011;13449;49.374;8.584;2023-12-20T07:52:18;6.15;;;3.78;;
24485;SDS011;13449;49.374;8.584;2023-12-20T07:54:45;5.13;;;3.03;;
24485;SDS011;13449;49.374;8.584;2023-12-20T07:57:12;4.78;;;3.00;;
24485;SDS011;13449;49.374;8.584;2023-12-20T07:59:39;5.60;;;3.33;;
24485;SDS011;13449;49.374;8.584;2023-12-20T08:02:05;5.53;;;3.42;;
24485;SDS011;13449;49.374;8.584;2023-12-20T08:04:32;4.93;;;3.28;;
24485;SDS011;13449;49.374;8.584;2023-12-20T08:06:59;5.68;;;3.47;;
24485;SDS011;13449;49.374;8.584;2023-12-20T08:09:26;6.03;;;2.58;;
24485;SDS011;13449;49.374;8.584;2023-12-20T08:11:53;6.00;;;3.13;;
24485;SDS011;13449;49.374;8.584;2023-12-20T08:14:19;7.32;;;3.75;;
24485;SDS011;13449;49.374;8.584;2023-12-20T08:16:46;3.65;;;2.90;;
24485;SDS011;13449;49.374;8.584;2023-12-20T08:19:12;4.53;;;3.13;;
24485;SDS011;13449;49.374;8.584;2023-12-20T08:21:40;3.88;;;2.83;;
24485;SDS011;13449;49.374;8.584;2023-12-20T08:24:06;3.30;;;2.38;;
24485;SDS011;13449;49.374;8.584;2023-12-20T08:26:33;5.90;;;2.25;;
24485;SDS011;13449;49.374;8.584;2023-12-20T08:28:59;13.25;;;2.65;;
24485;SDS011;13449;49.374;8.584;2023-12-20T08:31:35;6.47;;;2.95;;
24485;SDS011;13449;49.374;8.584;2023-12-20T08:34:04;2.97;;;2.22;;
24485;SDS011;13449;49.374;8.584;2023-12-20T08:36:34;5.30;;;2.08;;
24485;SDS011;13449;49.374;8.584;2023-12-20T08:39:00;3.80;;;2.40;;
24485;SDS011;13449;49.374;8.584;2023-12-20T08:41:27;3.58;;;2.05;;
24485;SDS011;13449;49.374;8.584;2023-12-20T08:43:53;3.08;;;2.08;;
24485;SDS011;13449;49.374;8.584;2023-12-20T08:46:20;5.78;;;2.00;;
24485;SDS011;13449;49.374;8.584;2023-12-20T08:48:47;5.32;;;1.92;;
24485;SDS011;13449;49.374;8.584;2023-12-20T08:51:14;3.10;;;1.65;;
24485;SDS011;13449;49.374;8.584;2023-12-20T08:53:40;3.10;;;1.95;;
24485;SDS011;13449;49.374;8.584;2023-12-20T08:56:10;7.55;;;2.30;;
24485;SDS011;13449;49.374;8.584;2023-12-20T08:58:39;10.30;;;2.50;;
24485;SDS011;13449;49.374;8.584;2023-12-20T09:01:06;5.72;;;2.13;;
24485;SDS011;13449;49.374;8.584;2023-12-20T09:03:33;3.50;;;1.83;;
24485;SDS011;13449;49.374;8.584;2023-12-20T09:06:02;9.20;;;2.63;;
24485;SDS011;13449;49.374;8.584;2023-12-20T09:08:29;4.63;;;2.58;;
24485;SDS011;13449;49.374;8.584;2023-12-20T09:10:56;3.80;;;2.75;;
24485;SDS011;13449;49.374;8.584;2023-12-20T09:13:25;10.00;;;2.55;;
24485;SDS011;13449;49.374;8.584;2023-12-20T09:15:55;7.30;;;2.22;;
24485;SDS011;13449;49.374;8.584;2023-12-20T09:18:22;6.68;;;2.20;;
24485;SDS011;13449;49.374;8.584;2023-12-20T09:20:49;14.48;;;2.78;;
24485;SDS011;13449;49.374;8.584;2023-12-20T09:23:16;7.63;;;2.13;;
24485;SDS011;13449;49.374;8.584;2023-12-20T09:25:43;2.72;;;2.35;;
24485;SDS011;13449;49.374;8.584;2023-12-20T09:28:10;8.25;;;3.42;;
24485;SDS011;13449;49.374;8.584;2023-12-20T09:30:37;4.30;;;2.47;;
24485;SDS011;13449;49.374;8.584;2023-12-20T09:33:06;4.10;;;2.17;;
24485;SDS011;13449;49.374;8.584;2023-12-20T09:35:34;7.20;;;2.70;;
24485;SDS011;13449;49.374;8.584;2023-12-20T09:38:00;7.80;;;2.05;;
24485;SDS011;13449;49.374;8.584;2023-12-20T09:40:27;15.82;;;2.72;;
24485;SDS011;13449;49.374;8.584;2023-12-20T09:43:03;6.00;;;2.25;;
24485;SDS011;13449;49.374;8.584;2023-12-20T09:45:31;9.48;;;1.65;;
24485;SDS011;13449;49.374;8.584;2023-12-20T09:47:58;6.53;;;1.65;;
24485;SDS011;13449;49.374;8.584;2023-12-20T09:50:25;4.55;;;1.45;;
24485;SDS011;13449;49.374;8.584;2023-12-20T09:52:53;11.57;;;1.63;;
24485;SDS011;13449;49.374;8.584;2023-12-20T09:55:22;8.80;;;2.33;;
24485;SDS011;13449;49.374;8.584;2023-12-20T09:57:51;24.17;;;6.22;;
24485;SDS011;13449;49.374;8.584;2023-12-20T10:00:18;9.10;;;3.47;;
24485;SDS011;13449;49.374;8.584;2023-12-20T10:05:17;13.35;;;2.55;;
24485;SDS011;13449;49.374;8.584;2023-12-20T10:07:47;7.45;;;1.95;;
24485;SDS011;13449;49.374;8.584;2023-12-20T10:10:14;13.50;;;2.33;;
24485;SDS011;13449;49.374;8.584;2023-12-20T10:12:42;10.48;;;2.47;;
24485;SDS011;13449;49.374;8.584;2023-12-20T10:15:28;11.52;;;2.20;;
24485;SDS011;13449;49.374;8.584;2023-12-20T10:17:55;13.85;;;2.05;;
24485;SDS011;13449;49.374;8.584;2023-12-20T10:20:27;14.02;;;2.05;;
24485;SDS011;13449;49.374;8.584;2023-12-20T10:22:59;10.43;;;1.83;;
24485;SDS011;13449;49.374;8.584;2023-12-20T10:25:26;5.90;;;1.80;;
24485;SDS011;13449;49.374;8.584;2023-12-20T10:28:10;11.13;;;2.45;;
24485;SDS011;13449;49.374;8.584;2023-12-20T10:30:41;9.95;;;1.30;;
24485;SDS011;13449;49.374;8.584;2023-12-20T10:33:08;11.50;;;2.22;;
24485;SDS011;13449;49.374;8.584;2023-12-20T10:35:38;9.93;;;1.40;;
24485;SDS011;13449;49.374;8.584;2023-12-20T10:38:10;12.00;;;2.10;;
24485;SDS011;13449;49.374;8.584;2023-12-20T10:40:39;9.77;;;2.67;;
24485;SDS011;13449;49.374;8.584;2023-12-20T10:43:06;4.60;;;2.50;;
24485;SDS011;13449;49.374;8.584;2023-12-20T10:45:37;10.98;;;3.65;;
24485;SDS011;13449;49.374;8.584;2023-12-20T10:48:04;11.88;;;3.85;;
24485;SDS011;13449;49.374;8.584;2023-12-20T10:50:31;5.63;;;2.88;;
24485;SDS011;13449;49.374;8.584;2023-12-20T10:52:58;13.02;;;1.98;;
24485;SDS011;13449;49.374;8.584;2023-12-20T10:55:26;7.07;;;3.33;;
24485;SDS011;13449;49.374;8.584;2023-12-20T10:58:00;6.50;;;3.28;;
24485;SDS011;13449;49.374;8.584;2023-12-20T11:00:29;10.73;;;2.67;;
24485;SDS011;13449;49.374;8.584;2023-12-20T11:02:59;6.50;;;2.72;;
24485;SDS011;13449;49.374;8.584;2023-12-20T11:05:31;9.63;;;2.43;;
24485;SDS011;13449;49.374;8.584;2023-12-20T11:13:22;13.52;;;2.15;;
24485;SDS011;13449;49.374;8.584;2023-12-20T11:15:53;10.23;;;2.28;;
24485;SDS011;13449;49.374;8.584;2023-12-20T11:18:20;6.68;;;1.80;;
24485;SDS011;13449;49.374;8.584;2023-12-20T11:20:55;3.45;;;1.38;;
24485;SDS011;13449;49.374;8.584;2023-12-20T11:23:30;11.60;;;2.10;;
24485;SDS011;13449;49.374;8.584;2023-12-20T11:26:01;11.13;;;1.58;;
24485;SDS011;13449;49.374;8.584;2023-12-20T11:28:28;11.23;;;1.77;;
24485;SDS011;13449;49.374;8.584;2023-12-20T11:30:58;4.25;;;1.80;;
24485;SDS011;13449;49.374;8.584;2023-12-20T11:33:31;8.73;;;1.83;;
24485;SDS011;13449;49.374;8.584;2023-12-20T11:36:06;10.85;;;2.10;;
24485;SDS011;13449;49.374;8.584;2023-12-20T11:38:49;7.70;;;2.13;;
24485;SDS011;13449;49.374;8.584;2023-12-20T11:41:22;4.38;;;1.65;;
24485;SDS011;13449;49.374;8.584;2023-12-20T11:43:49;7.13;;;1.25;;
24485;SDS011;13449;49.374;8.584;2023-12-20T11:46:19;12.55;;;1.90;;
24485;SDS011;13449;49.374;8.584;2023-12-20T11:48:46;17.23;;;2.15;;
24485;SDS011;13449;49.374;8.584;2023-12-20T11:51:16;5.43;;;1.85;;
24485;SDS011;13449;49.374;8.584;2023-12-20T11:53:42;5.20;;;1.52;;
24485;SDS011;13449;49.374;8.584;2023-12-20T11:56:09;9.07;;;2.25;;
24485;SDS011;13449;49.374;8.584;2023-12-20T11:58:37;15.27;;;1.70;;
24485;SDS011;13449;49.374;8.584;2023-12-20T12:01:04;5.43;;;1.77;;
24485;SDS011;13449;49.374;8.584;2023-12-20T12:03:34;7.03;;;1.90;;
24485;SDS011;13449;49.374;8.584;2023-12-20T12:06:01;9.35;;;1.75;;
24485;SDS011;13449;49.374;8.584;2023-12-20T12:08:31;13.45;;;2.10;;
24485;SDS011;13449;49.374;8.584;2023-12-20T12:10:57;10.98;;;2.42;;
24485;SDS011;13449;49.374;8.584;2023-12-20T12:13:26;5.93;;;2.20;;
24485;SDS011;13449;49.374;8.584;2023-12-20T12:15:55;9.45;;;3.10;;
24485;SDS011;13449;49.374;8.584;2023-12-20T12:18:22;12.43;;;2.75;;
24485;SDS011;13449;49.374;8.584;2023-12-20T12:20:49;12.60;;;3.97;;
24485;SDS011;13449;49.374;8.584;2023-12-20T12:23:22;12.35;;;2.53;;
24485;SDS011;13449;49.374;8.584;2023-12-20T12:25:49;11.82;;;4.40;;
24485;SDS011;13449;49.374;8.584;2023-12-20T12:28:16;22.20;;;5.70;;
24485;SDS011;13449;49.374;8.584;2023-12-20T12:30:43;16.30;;;5.85;;
24485;SDS011;13449;49.374;8.584;2023-12-20T12:33:23;16.65;;;4.55;;
24485;SDS011;13449;49.374;8.584;2023-12-20T12:35:51;8.40;;;3.35;;
24485;SDS011;13449;49.374;8.584;2023-12-20T12:38:21;5.40;;;2.17;;
24485;SDS011;13449;49.374;8.584;2023-12-20T12:40:48;3.05;;;1.48;;
24485;SDS011;13449;49.374;8.584;2023-12-20T12:43:16;7.55;;;2.17;;
24485;SDS011;13449;49.374;8.584;2023-12-20T12:45:42;13.88;;;2.60;;
24485;SDS011;13449;49.374;8.584;2023-12-20T12:48:10;12.20;;;2.40;;
24485;SDS011;13449;49.374;8.584;2023-12-20T12:50:36;6.57;;;1.77;;
24485;SDS011;13449;49.374;8.584;2023-12-20T12:53:03;8.10;;;1.95;;
24485;SDS011;13449;49.374;8.584;2023-12-20T12:55:32;7.97;;;1.60;;
24485;SDS011;13449;49.374;8.584;2023-12-20T12:58:00;9.82;;;1.92;;
24485;SDS011;13449;49.374;8.584;2023-12-20T13:00:27;8.18;;;2.20;;
24485;SDS011;13449;49.374;8.584;2023-12-20T13:02:54;7.45;;;2.28;;
24485;SDS011;13449;49.374;8.584;2023-12-20T13:05:20;8.20;;;2.33;;
24485;SDS011;13449;49.374;8.584;2023-12-20T13:07:47;15.52;;;2.13;;
24485;SDS011;13449;49.374;8.584;2023-12-20T13:10:14;6.32;;;1.88;;
24485;SDS011;13449;49.374;8.584;2023-12-20T13:12:43;4.25;;;2.00;;
24485;SDS011;13449;49.374;8.584;2023-12-20T13:15:09;17.90;;;2.70;;
24485;SDS011;13449;49.374;8.584;2023-12-20T13:17:36;8.27;;;1.95;;
24485;SDS011;13449;49.374;8.584;2023-12-20T13:20:04;4.35;;;1.80;;
24485;SDS011;13449;49.374;8.584;2023-12-20T13:22:31;5.55;;;1.75;;
24485;SDS011;13449;49.374;8.584;2023-12-20T13:24:58;9.50;;;2.10;;
24485;SDS011;13449;49.374;8.584;2023-12-20T13:27:24;13.15;;;2.35;;
24485;SDS011;13449;49.374;8.584;2023-12-20T13:29:51;9.20;;;2.03;;
24485;SDS011;13449;49.374;8.584;2023-12-20T13:32:18;5.15;;;2.20;;
24485;SDS011;13449;49.374;8.584;2023-12-20T13:34:46;4.22;;;1.38;;
24485;SDS011;13449;49.374;8.584;2023-12-20T13:37:14;8.13;;;1.80;;
24485;SDS011;13449;49.374;8.584;2023-12-20T13:39:40;7.90;;;2.05;;
24485;SDS011;13449;49.374;8.584;2023-12-20T13:42:07;10.13;;;1.88;;
24485;SDS011;13449;49.374;8.584;2023-12-20T13:44:36;4.80;;;1.63;;
24485;SDS011;13449;49.374;8.584;2023-12-20T13:47:02;7.45;;;2.30;;
24485;SDS011;13449;49.374;8.584;2023-12-20T13:49:32;10.93;;;2.45;;
24485;SDS011;13449;49.374;8.584;2023-12-20T13:52:13;5.28;;;1.45;;
24485;SDS011;13449;49.374;8.584;2023-12-20T13:54:39;17.08;;;2.25;;
24485;SDS011;13449;49.374;8.584;2023-12-20T13:57:06;13.48;;;2.78;;
24485;SDS011;13449;49.374;8.584;2023-12-20T13:59:46;5.57;;;2.28;;
24485;SDS011;13449;49.374;8.584;2023-12-20T14:02:16;16.67;;;2.55;;
24485;SDS011;13449;49.374;8.584;2023-12-20T14:04:42;10.43;;;1.98;;
24485;SDS011;13449;49.374;8.584;2023-12-20T14:07:10;9.93;;;2.25;;
24485;SDS011;13449;49.374;8.584;2023-12-20T14:09:38;10.05;;;1.90;;
24485;SDS011;13449;49.374;8.584;2023-12-20T14:12:05;22.00;;;3.35;;
24485;SDS011;13449;49.374;8.584;2023-12-20T14:14:32;10.98;;;2.70;;
24485;SDS011;13449;49.374;8.584;2023-12-20T14:16:59;9.00;;;2.95;;
24485;SDS011;13449;49.374;8.584;2023-12-20T14:19:28;14.52;;;2.83;;
24485;SDS011;13449;49.374;8.584;2023-12-20T14:21:55;11.32;;;2.63;;
24485;SDS011;13449;49.374;8.584;2023-12-20T14:24:21;9.68;;;2.28;;
24485;SDS011;13449;49.374;8.584;2023-12-20T14:26:48;8.70;;;2.28;;
24485;SDS011;13449;49.374;8.584;2023-12-20T14:29:14;14.38;;;2.42;;
24485;SDS011;13449;49.374;8.584;2023-12-20T14:31:41;11.05;;;3.25;;
24485;SDS011;13449;49.374;8.584;2023-12-20T14:34:07;9.40;;;2.47;;
24485;SDS011;13449;49.374;8.584;2023-12-20T14:36:34;11.52;;;3.28;;
24485;SDS011;13449;49.374;8.584;2023-12-20T14:39:01;6.75;;;2.47;;
24485;SDS011;13449;49.374;8.584;2023-12-20T14:41:31;9.50;;;2.95;;
24485;SDS011;13449;49.374;8.584;2023-12-20T14:43:58;16.48;;;2.47;;
24485;SDS011;13449;49.374;8.584;2023-12-20T14:46:26;10.10;;;3.33;;
24485;SDS011;13449;49.374;8.584;2023-12-20T14:48:54;12.25;;;3.90;;
24485;SDS011;13449;49.374;8.584;2023-12-20T14:51:21;19.17;;;4.28;;
24485;SDS011;13449;49.374;8.584;2023-12-20T14:53:49;14.82;;;3.88;;
24485;SDS011;13449;49.374;8.584;2023-12-20T14:56:16;18.40;;;3.63;;
24485;SDS011;13449;49.374;8.584;2023-12-20T14:58:42;7.10;;;2.97;;
24485;SDS011;13449;49.374;8.584;2023-12-20T15:01:09;12.45;;;3.60;;